Metar z pełnej godziny Komunikat METAR ze strony awiacja.imgw.pl Metar G00 EPMO METAR EPMO 200400Z 25013KT 9999 BKN045 05/02 Q1013 =